sensor_id;sensor_type;location;lat;lon;timestamp;pressure;altitude;pressure_sealevel;temperature;humidity
58843;BME280;44614;54.356;10.100;2024-01-07T00:00:27;102001.44;;;-0.80;100.00
58843;BME280;44614;54.356;10.100;2024-01-07T00:02:53;102009.63;;;-0.81;100.00
58843;BME280;44614;54.356;10.100;2024-01-07T00:05:18;102006.06;;;-0.82;100.00
58843;BME280;44614;54.356;10.100;2024-01-07T00:07:44;102002.75;;;-0.85;100.00
58843;BME280;44614;54.356;10.100;2024-01-07T00:10:09;102004.38;;;-0.83;100.00
58843;BME280;44614;54.356;10.100;2024-01-07T00:12:35;102019.69;;;-0.83;100.00
58843;BME280;44614;54.356;10.100;2024-01-07T00:15:00;102024.31;;;-0.85;100.00
58843;BME280;44614;54.356;10.100;2024-01-07T00:17:26;102018.31;;;-0.89;100.00
58843;BME280;44614;54.356;10.100;2024-01-07T00:19:51;102024.69;;;-0.90;100.00
58843;BME280;44614;54.356;10.100;2024-01-07T00:22:17;102021.75;;;-0.87;100.00
58843;BME280;44614;54.356;10.100;2024-01-07T00:24:43;101992.78;;;-1.07;100.00
58843;BME280;44614;54.356;10.100;2024-01-07T00:27:08;102027.88;;;-0.85;100.00
58843;BME280;44614;54.356;10.100;2024-01-07T00:29:34;102034.03;;;-0.83;100.00
58843;BME280;44614;54.356;10.100;2024-01-07T00:32:01;102057.31;;;-0.82;100.00
58843;BME280;44614;54.356;10.100;2024-01-07T00:34:27;102038.56;;;-0.83;100.00
58843;BME280;44614;54.356;10.100;2024-01-07T00:36:52;102040.41;;;-0.84;100.00
58843;BME280;44614;54.356;10.100;2024-01-07T00:39:18;102048.50;;;-0.84;100.00
58843;BME280;44614;54.356;10.100;2024-01-07T00:41:43;102050.22;;;-0.83;100.00
58843;BME280;44614;54.356;10.100;2024-01-07T00:44:09;102054.22;;;-0.88;100.00
58843;BME280;44614;54.356;10.100;2024-01-07T00:46:34;102002.09;;;-1.11;100.00
58843;BME280;44614;54.356;10.100;2024-01-07T00:48:59;102048.97;;;-0.90;100.00
58843;BME280;44614;54.356;10.100;2024-01-07T00:51:25;102051.19;;;-0.84;100.00
58843;BME280;44614;54.356;10.100;2024-01-07T00:53:50;102045.91;;;-0.85;100.00
58843;BME280;44614;54.356;10.100;2024-01-07T00:56:16;102055.59;;;-0.83;100.00
58843;BME280;44614;54.356;10.100;2024-01-07T00:58:41;102070.94;;;-0.83;100.00
58843;BME280;44614;54.356;10.100;2024-01-07T01:01:06;102068.34;;;-0.85;100.00
58843;BME280;44614;54.356;10.100;2024-01-07T01:03:32;102067.38;;;-0.84;100.00
58843;BME280;44614;54.356;10.100;2024-01-07T01:05:58;102065.53;;;-0.83;100.00
58843;BME280;44614;54.356;10.100;2024-01-07T01:08:23;102063.56;;;-0.81;100.00
58843;BME280;44614;54.356;10.100;2024-01-07T01:10:49;102069.09;;;-0.83;100.00
58843;BME280;44614;54.356;10.100;2024-01-07T01:13:15;102069.19;;;-0.84;100.00
58843;BME280;44614;54.356;10.100;2024-01-07T01:15:40;102062.94;;;-0.85;100.00
58843;BME280;44614;54.356;10.100;2024-01-07T01:18:07;102070.94;;;-0.83;100.00
58843;BME280;44614;54.356;10.100;2024-01-07T01:20:32;102088.06;;;-0.84;100.00
58843;BME280;44614;54.356;10.100;2024-01-07T01:22:57;102084.53;;;-0.85;100.00
58843;BME280;44614;54.356;10.100;2024-01-07T01:25:23;102081.19;;;-0.88;100.00
58843;BME280;44614;54.356;10.100;2024-01-07T01:27:48;102088.66;;;-0.92;100.00
58843;BME280;44614;54.356;10.100;2024-01-07T01:30:14;102090.00;;;-0.98;100.00
58843;BME280;44614;54.356;10.100;2024-01-07T01:32:39;102097.25;;;-0.98;100.00
58843;BME280;44614;54.356;10.100;2024-01-07T01:35:05;102112.66;;;-1.00;100.00
58843;BME280;44614;54.356;10.100;2024-01-07T01:37:31;102071.63;;;-1.28;100.00
58843;BME280;44614;54.356;10.100;2024-01-07T01:40:00;102107.75;;;-1.06;100.00
58843;BME280;44614;54.356;10.100;2024-01-07T01:42:26;102102.59;;;-1.09;100.00
58843;BME280;44614;54.356;10.100;2024-01-07T01:44:51;102105.28;;;-1.09;100.00
58843;BME280;44614;54.356;10.100;2024-01-07T01:47:18;102109.28;;;-1.15;100.00
58843;BME280;44614;54.356;10.100;2024-01-07T01:49:45;102130.53;;;-1.10;100.00
58843;BME280;44614;54.356;10.100;2024-01-07T01:52:12;102114.38;;;-1.10;100.00
58843;BME280;44614;54.356;10.100;2024-01-07T01:54:39;102088.03;;;-1.31;100.00
58843;BME280;44614;54.356;10.100;2024-01-07T01:57:05;102129.56;;;-1.09;100.00
58843;BME280;44614;54.356;10.100;2024-01-07T01:59:31;102118.78;;;-1.09;100.00
58843;BME280;44614;54.356;10.100;2024-01-07T02:01:59;102127.84;;;-1.10;100.00
58843;BME280;44614;54.356;10.100;2024-01-07T02:04:24;102123.31;;;-1.10;100.00
58843;BME280;44614;54.356;10.100;2024-01-07T02:06:50;102125.00;;;-1.09;100.00
58843;BME280;44614;54.356;10.100;2024-01-07T02:09:16;102123.31;;;-1.10;100.00
58843;BME280;44614;54.356;10.100;2024-01-07T02:11:41;102133.09;;;-1.09;100.00
58843;BME280;44614;54.356;10.100;2024-01-07T02:14:06;102128.69;;;-1.10;100.00
58843;BME280;44614;54.356;10.100;2024-01-07T02:16:32;102133.88;;;-1.07;100.00
58843;BME280;44614;54.356;10.100;2024-01-07T02:18:58;102130.19;;;-1.06;100.00
58843;BME280;44614;54.356;10.100;2024-01-07T02:21:23;102132.75;;;-1.04;100.00
58843;BME280;44614;54.356;10.100;2024-01-07T02:23:49;102126.63;;;-1.06;100.00
58843;BME280;44614;54.356;10.100;2024-01-07T02:26:14;102129.56;;;-1.09;100.00
58843;BME280;44614;54.356;10.100;2024-01-07T02:28:40;102137.63;;;-1.09;100.00
58843;BME280;44614;54.356;10.100;2024-01-07T02:31:05;102136.78;;;-1.10;100.00
58843;BME280;44614;54.356;10.100;2024-01-07T02:33:30;102134.19;;;-1.11;100.00
58843;BME280;44614;54.356;10.100;2024-01-07T02:35:56;102101.84;;;-1.35;100.00
58843;BME280;44614;54.356;10.100;2024-01-07T02:38:23;102130.94;;;-1.28;100.00
58843;BME280;44614;54.356;10.100;2024-01-07T02:40:48;102158.69;;;-1.14;100.00
58843;BME280;44614;54.356;10.100;2024-01-07T02:43:13;102154.63;;;-1.20;100.00
58843;BME280;44614;54.356;10.100;2024-01-07T02:45:39;102168.84;;;-1.18;100.00
58843;BME280;44614;54.356;10.100;2024-01-07T02:48:05;102157.66;;;-1.25;100.00
58843;BME280;44614;54.356;10.100;2024-01-07T02:50:31;102169.66;;;-1.29;100.00
58843;BME280;44614;54.356;10.100;2024-01-07T02:52:57;102172.56;;;-1.32;100.00
58843;BME280;44614;54.356;10.100;2024-01-07T02:55:23;102175.38;;;-1.33;100.00
58843;BME280;44614;54.356;10.100;2024-01-07T02:57:48;102184.31;;;-1.33;100.00
58843;BME280;44614;54.356;10.100;2024-01-07T03:00:14;102179.03;;;-1.34;100.00
58843;BME280;44614;54.356;10.100;2024-01-07T03:02:39;102188.22;;;-1.37;100.00
58843;BME280;44614;54.356;10.100;2024-01-07T03:05:05;102194.34;;;-1.35;100.00
58843;BME280;44614;54.356;10.100;2024-01-07T03:07:30;102198.44;;;-1.42;100.00
58843;BME280;44614;54.356;10.100;2024-01-07T03:09:56;102195.75;;;-1.42;100.00
58843;BME280;44614;54.356;10.100;2024-01-07T03:12:21;102193.06;;;-1.42;100.00
58843;BME280;44614;54.356;10.100;2024-01-07T03:14:46;102197.50;;;-1.41;100.00
58843;BME280;44614;54.356;10.100;2024-01-07T03:17:12;102210.34;;;-1.44;100.00
58843;BME280;44614;54.356;10.100;2024-01-07T03:19:38;102187.50;;;-1.64;100.00
58843;BME280;44614;54.356;10.100;2024-01-07T03:22:03;102205.16;;;-1.48;100.00
58843;BME280;44614;54.356;10.100;2024-01-07T03:24:31;102204.75;;;-1.54;100.00
58843;BME280;44614;54.356;10.100;2024-01-07T03:26:56;102210.13;;;-1.54;100.00
58843;BME280;44614;54.356;10.100;2024-01-07T03:29:21;102210.13;;;-1.54;100.00
58843;BME280;44614;54.356;10.100;2024-01-07T03:31:47;102210.34;;;-1.57;100.00
58843;BME280;44614;54.356;10.100;2024-01-07T03:34:12;102210.56;;;-1.60;100.00
58843;BME280;44614;54.356;10.100;2024-01-07T03:36:38;102222.31;;;-1.61;100.00
58843;BME280;44614;54.356;10.100;2024-01-07T03:39:03;102223.50;;;-1.65;100.00
58843;BME280;44614;54.356;10.100;2024-01-07T03:41:28;102223.00;;;-1.70;100.00
58843;BME280;44614;54.356;10.100;2024-01-07T03:43:54;102207.16;;;-1.88;100.00
58843;BME280;44614;54.356;10.100;2024-01-07T03:46:20;102182.63;;;-2.09;100.00
58843;BME280;44614;54.356;10.100;2024-01-07T03:48:46;102229.25;;;-1.83;100.00
58843;BME280;44614;54.356;10.100;2024-01-07T03:51:11;102235.50;;;-1.82;100.00
58843;BME280;44614;54.356;10.100;2024-01-07T03:53:36;102234.09;;;-1.88;100.00
58843;BME280;44614;54.356;10.100;2024-01-07T03:56:02;102233.34;;;-1.90;100.00
58843;BME280;44614;54.356;10.100;2024-01-07T03:58:28;102222.78;;;-1.93;100.00
58843;BME280;44614;54.356;10.100;2024-01-07T04:00:53;102231.06;;;-1.96;100.00
58843;BME280;44614;54.356;10.100;2024-01-07T04:03:18;102236.66;;;-1.99;100.00
58843;BME280;44614;54.356;10.100;2024-01-07T04:05:44;102233.03;;;-1.98;100.00
58843;BME280;44614;54.356;10.100;2024-01-07T04:08:11;102246.16;;;-1.93;100.00
58843;BME280;44614;54.356;10.100;2024-01-07T04:10:37;102249.59;;;-1.91;100.00
58843;BME280;44614;54.356;10.100;2024-01-07T04:13:03;102258.44;;;-1.89;100.00
58843;BME280;44614;54.356;10.100;2024-01-07T04:15:29;102263.69;;;-1.88;100.00
58843;BME280;44614;54.356;10.100;2024-01-07T04:17:55;102248.53;;;-1.89;100.00
58843;BME280;44614;54.356;10.100;2024-01-07T04:20:22;102256.59;;;-1.89;100.00
58843;BME280;44614;54.356;10.100;2024-01-07T04:22:48;102261.00;;;-1.88;100.00
58843;BME280;44614;54.356;10.100;2024-01-07T04:25:14;102261.78;;;-1.86;100.00
58843;BME280;44614;54.356;10.100;2024-01-07T04:27:39;102268.88;;;-1.85;100.00
58843;BME280;44614;54.356;10.100;2024-01-07T04:30:05;102271.56;;;-1.85;100.00
58843;BME280;44614;54.356;10.100;2024-01-07T04:32:31;102274.06;;;-1.82;100.00
58843;BME280;44614;54.356;10.100;2024-01-07T04:34:57;102278.47;;;-1.81;100.00
58843;BME280;44614;54.356;10.100;2024-01-07T04:37:25;102241.84;;;-1.96;100.00
58843;BME280;44614;54.356;10.100;2024-01-07T04:39:51;102285.56;;;-1.80;100.00
58843;BME280;44614;54.356;10.100;2024-01-07T04:42:17;102262.19;;;-1.92;100.00
58843;BME280;44614;54.356;10.100;2024-01-07T04:44:43;102274.06;;;-1.82;100.00
58843;BME280;44614;54.356;10.100;2024-01-07T04:47:28;102275.69;;;-1.79;100.00
58843;BME280;44614;54.356;10.100;2024-01-07T04:49:54;102283.00;;;-1.81;100.00
58843;BME280;44614;54.356;10.100;2024-01-07T04:52:21;102283.75;;;-1.79;100.00
58843;BME280;44614;54.356;10.100;2024-01-07T04:54:47;102285.69;;;-1.81;100.00
58843;BME280;44614;54.356;10.100;2024-01-07T04:57:12;102290.31;;;-1.83;100.00
58843;BME280;44614;54.356;10.100;2024-01-07T04:59:38;102285.81;;;-1.83;100.00
58843;BME280;44614;54.356;10.100;2024-01-07T05:02:03;102280.63;;;-1.86;100.00
58843;BME280;44614;54.356;10.100;2024-01-07T05:04:28;102288.38;;;-1.81;100.00
58843;BME280;44614;54.356;10.100;2024-01-07T05:06:54;102293.75;;;-1.81;100.00
58843;BME280;44614;54.356;10.100;2024-01-07T05:09:19;102297.44;;;-1.82;100.00
58843;BME280;44614;54.356;10.100;2024-01-07T05:11:45;102303.56;;;-1.80;100.00
58843;BME280;44614;54.356;10.100;2024-01-07T05:14:11;102314.78;;;-1.86;100.00
58843;BME280;44614;54.356;10.100;2024-01-07T05:16:36;102297.53;;;-1.84;100.00
58843;BME280;44614;54.356;10.100;2024-01-07T05:19:02;102257.34;;;-2.12;100.00
58843;BME280;44614;54.356;10.100;2024-01-07T05:21:27;102315.44;;;-1.83;100.00
58843;BME280;44614;54.356;10.100;2024-01-07T05:23:52;102319.19;;;-1.85;100.00
58843;BME280;44614;54.356;10.100;2024-01-07T05:26:18;102320.47;;;-1.91;100.00
58843;BME280;44614;54.356;10.100;2024-01-07T05:28:43;102319.59;;;-1.91;100.00
58843;BME280;44614;54.356;10.100;2024-01-07T05:31:16;102278.44;;;-2.19;100.00
58843;BME280;44614;54.356;10.100;2024-01-07T05:33:42;102317.88;;;-1.92;100.00
58843;BME280;44614;54.356;10.100;2024-01-07T05:36:08;102337.78;;;-1.95;100.00
58843;BME280;44614;54.356;10.100;2024-01-07T05:38:33;102314.44;;;-1.94;100.00
58843;BME280;44614;54.356;10.100;2024-01-07T05:40:59;102327.13;;;-1.97;100.00
58843;BME280;44614;54.356;10.100;2024-01-07T05:43:24;102329.84;;;-1.97;100.00
58843;BME280;44614;54.356;10.100;2024-01-07T05:45:50;102327.25;;;-1.98;100.00
58843;BME280;44614;54.356;10.100;2024-01-07T05:48:15;102335.75;;;-2.04;100.00
58843;BME280;44614;54.356;10.100;2024-01-07T05:50:40;102339.41;;;-2.05;100.00
58843;BME280;44614;54.356;10.100;2024-01-07T05:53:06;102332.50;;;-2.09;100.00
58843;BME280;44614;54.356;10.100;2024-01-07T05:55:31;102334.03;;;-2.05;100.00
58843;BME280;44614;54.356;10.100;2024-01-07T05:57:57;102346.72;;;-2.07;100.00
58843;BME280;44614;54.356;10.100;2024-01-07T06:00:23;102345.19;;;-2.11;100.00
58843;BME280;44614;54.356;10.100;2024-01-07T06:02:48;102341.53;;;-2.10;100.00
58843;BME280;44614;54.356;10.100;2024-01-07T06:05:14;102342.63;;;-2.13;100.00
58843;BME280;44614;54.356;10.100;2024-01-07T06:07:39;102351.63;;;-2.14;100.00
58843;BME280;44614;54.356;10.100;2024-01-07T06:10:05;102347.16;;;-2.13;100.00
58843;BME280;44614;54.356;10.100;2024-01-07T06:12:31;102350.59;;;-2.11;100.00
58843;BME280;44614;54.356;10.100;2024-01-07T06:14:57;102366.00;;;-2.13;100.00
58843;BME280;44614;54.356;10.100;2024-01-07T06:17:22;102365.00;;;-2.12;100.00
58843;BME280;44614;54.356;10.100;2024-01-07T06:19:47;102369.44;;;-2.11;100.00
58843;BME280;44614;54.356;10.100;2024-01-07T06:22:13;102369.63;;;-2.14;100.00
58843;BME280;44614;54.356;10.100;2024-01-07T06:24:38;102372.78;;;-2.08;100.00
58843;BME280;44614;54.356;10.100;2024-01-07T06:27:04;102377.19;;;-2.07;100.00
58843;BME280;44614;54.356;10.100;2024-01-07T06:29:30;102380.72;;;-2.06;100.00
58843;BME280;44614;54.356;10.100;2024-01-07T06:31:55;102384.19;;;-2.04;100.00
58843;BME280;44614;54.356;10.100;2024-01-07T06:34:20;102382.38;;;-2.04;100.00
58843;BME280;44614;54.356;10.100;2024-01-07T06:36:46;102392.47;;;-2.07;100.00
58843;BME280;44614;54.356;10.100;2024-01-07T06:39:12;102387.59;;;-2.15;100.00
58843;BME280;44614;54.356;10.100;2024-01-07T06:41:38;102395.38;;;-2.10;100.00
58843;BME280;44614;54.356;10.100;2024-01-07T06:44:03;102400.56;;;-2.07;100.00
58843;BME280;44614;54.356;10.100;2024-01-07T06:46:29;102397.13;;;-2.09;100.00
58843;BME280;44614;54.356;10.100;2024-01-07T06:48:54;102407.66;;;-2.06;100.00
58843;BME280;44614;54.356;10.100;2024-01-07T06:51:20;102407.09;;;-2.11;100.00
58843;BME280;44614;54.356;10.100;2024-01-07T06:53:45;102414.53;;;-2.15;100.00
58843;BME280;44614;54.356;10.100;2024-01-07T06:56:11;102415.47;;;-2.29;100.00
58843;BME280;44614;54.356;10.100;2024-01-07T06:58:36;102424.81;;;-2.22;100.00
58843;BME280;44614;54.356;10.100;2024-01-07T07:01:02;102428.28;;;-2.19;100.00
58843;BME280;44614;54.356;10.100;2024-01-07T07:03:27;102430.78;;;-2.16;100.00
58843;BME280;44614;54.356;10.100;2024-01-07T07:05:53;102427.63;;;-2.23;100.00
58843;BME280;44614;54.356;10.100;2024-01-07T07:08:18;102379.66;;;-2.43;100.00
58843;BME280;44614;54.356;10.100;2024-01-07T07:10:44;102430.00;;;-2.18;100.00
58843;BME280;44614;54.356;10.100;2024-01-07T07:13:11;102424.63;;;-2.18;100.00
58843;BME280;44614;54.356;10.100;2024-01-07T07:15:37;102448.09;;;-2.21;100.00
58843;BME280;44614;54.356;10.100;2024-01-07T07:18:03;102451.97;;;-2.25;100.00
58843;BME280;44614;54.356;10.100;2024-01-07T07:20:28;102441.47;;;-2.29;100.00
58843;BME280;44614;54.356;10.100;2024-01-07T07:22:54;102443.97;;;-2.26;100.00
58843;BME280;44614;54.356;10.100;2024-01-07T07:25:19;102447.31;;;-2.23;100.00
58843;BME280;44614;54.356;10.100;2024-01-07T07:27:44;102453.75;;;-2.25;100.00
58843;BME280;44614;54.356;10.100;2024-01-07T07:30:10;102449.28;;;-2.25;100.00
58843;BME280;44614;54.356;10.100;2024-01-07T07:32:39;102463.00;;;-2.29;100.00
58843;BME280;44614;54.356;10.100;2024-01-07T07:35:04;102432.88;;;-2.49;100.00
58843;BME280;44614;54.356;10.100;2024-01-07T07:37:30;102463.22;;;-2.32;100.00
58843;BME280;44614;54.356;10.100;2024-01-07T07:39:55;102470.53;;;-2.34;100.00
58843;BME280;44614;54.356;10.100;2024-01-07T07:42:21;102481.47;;;-2.37;100.00
58843;BME280;44614;54.356;10.100;2024-01-07T07:44:46;102478.91;;;-2.39;100.00
58843;BME280;44614;54.356;10.100;2024-01-07T07:47:13;102472.75;;;-2.41;100.00
58843;BME280;44614;54.356;10.100;2024-01-07T07:49:38;102486.84;;;-2.37;100.00
58843;BME280;44614;54.356;10.100;2024-01-07T07:52:09;102492.53;;;-2.42;100.00
58843;BME280;44614;54.356;10.100;2024-01-07T07:54:37;102486.91;;;-2.52;100.00
58843;BME280;44614;54.356;10.100;2024-01-07T07:57:02;102493.41;;;-2.56;100.00
58843;BME280;44614;54.356;10.100;2024-01-07T07:59:28;102499.69;;;-2.55;100.00
58843;BME280;44614;54.356;10.100;2024-01-07T08:01:53;102502.38;;;-2.55;100.00
58843;BME280;44614;54.356;10.100;2024-01-07T08:04:19;102503.22;;;-2.55;100.00
58843;BME280;44614;54.356;10.100;2024-01-07T08:06:44;102508.69;;;-2.56;100.00
58843;BME280;44614;54.356;10.100;2024-01-07T08:09:10;102511.19;;;-2.53;100.00
58843;BME280;44614;54.356;10.100;2024-01-07T08:11:36;102517.34;;;-2.51;100.00
58843;BME280;44614;54.356;10.100;2024-01-07T08:14:01;102513.50;;;-2.47;100.00
58843;BME280;44614;54.356;10.100;2024-01-07T08:16:27;102510.81;;;-2.47;100.00
58843;BME280;44614;54.356;10.100;2024-01-07T08:18:52;102520.78;;;-2.49;100.00
58843;BME280;44614;54.356;10.100;2024-01-07T08:21:21;102516.94;;;-2.45;100.00
58843;BME280;44614;54.356;10.100;2024-01-07T08:23:48;102529.84;;;-2.50;100.00
58843;BME280;44614;54.356;10.100;2024-01-07T08:26:18;102534.44;;;-2.52;100.00
58843;BME280;44614;54.356;10.100;2024-01-07T08:28:44;102537.91;;;-2.50;100.00
58843;BME280;44614;54.356;10.100;2024-01-07T08:31:09;102538.78;;;-2.50;100.00
58843;BME280;44614;54.356;10.100;2024-01-07T08:33:35;102537.81;;;-2.49;100.00
58843;BME280;44614;54.356;10.100;2024-01-07T08:36:01;102541.34;;;-2.48;100.00
58843;BME280;44614;54.356;10.100;2024-01-07T08:38:26;102542.91;;;-2.44;100.00
58843;BME280;44614;54.356;10.100;2024-01-07T08:40:51;102548.19;;;-2.42;100.00
58843;BME280;44614;54.356;10.100;2024-01-07T08:43:17;102545.38;;;-2.41;100.00
58843;BME280;44614;54.356;10.100;2024-01-07T08:45:42;102538.78;;;-2.50;100.00
58843;BME280;44614;54.356;10.100;2024-01-07T08:48:08;102567.03;;;-2.42;100.00
58843;BME280;44614;54.356;10.100;2024-01-07T08:50:33;102561.25;;;-2.36;100.00
58843;BME280;44614;54.356;10.100;2024-01-07T08:52:59;102560.97;;;-2.32;100.00
58843;BME280;44614;54.356;10.100;2024-01-07T08:55:24;102552.91;;;-2.32;100.00
58843;BME280;44614;54.356;10.100;2024-01-07T08:57:50;102565.66;;;-2.21;100.00
58843;BME280;44614;54.356;10.100;2024-01-07T09:00:16;102541.53;;;-2.37;100.00
58843;BME280;44614;54.356;10.100;2024-01-07T09:02:41;102563.91;;;-2.22;100.00
58843;BME280;44614;54.356;10.100;2024-01-07T09:05:07;102517.72;;;-2.57;100.00
58843;BME280;44614;54.356;10.100;2024-01-07T09:07:32;102567.28;;;-2.33;100.00
58843;BME280;44614;54.356;10.100;2024-01-07T09:09:58;102574.00;;;-2.26;100.00
58843;BME280;44614;54.356;10.100;2024-01-07T09:12:27;102576.94;;;-2.29;100.00
58843;BME280;44614;54.356;10.100;2024-01-07T09:14:52;102567.69;;;-2.25;100.00
58843;BME280;44614;54.356;10.100;2024-01-07T09:17:17;102583.16;;;-2.28;100.00
58843;BME280;44614;54.356;10.100;2024-01-07T09:19:44;102578.06;;;-2.33;100.00
58843;BME280;44614;54.356;10.100;2024-01-07T09:22:09;102589.97;;;-2.23;100.00
58843;BME280;44614;54.356;10.100;2024-01-07T09:24:35;102573.75;;;-2.21;100.00
58843;BME280;44614;54.356;10.100;2024-01-07T09:27:00;102581.53;;;-2.16;100.00
58843;BME280;44614;54.356;10.100;2024-01-07T09:29:26;102580.56;;;-2.15;100.00
58843;BME280;44614;54.356;10.100;2024-01-07T09:31:52;102581.22;;;-2.26;97.83
58843;BME280;44614;54.356;10.100;2024-01-07T09:34:17;102580.25;;;-2.25;98.47
58843;BME280;44614;54.356;10.100;2024-01-07T09:36:43;102596.03;;;-2.33;94.31
58843;BME280;44614;54.356;10.100;2024-01-07T09:39:08;102597.56;;;-2.29;97.21
58843;BME280;44614;54.356;10.100;2024-01-07T09:41:34;102602.56;;;-2.37;91.86
58843;BME280;44614;54.356;10.100;2024-01-07T09:44:00;102593.75;;;-2.39;92.36
58843;BME280;44614;54.356;10.100;2024-01-07T09:46:26;102600.16;;;-2.42;91.85
58843;BME280;44614;54.356;10.100;2024-01-07T09:48:54;102594.78;;;-2.42;92.86
58843;BME280;44614;54.356;10.100;2024-01-07T09:51:22;102610.19;;;-2.44;90.45
58843;BME280;44614;54.356;10.100;2024-01-07T09:53:48;102606.59;;;-2.45;92.07
58843;BME280;44614;54.356;10.100;2024-01-07T09:56:23;102605.66;;;-2.43;93.96
58843;BME280;44614;54.356;10.100;2024-01-07T09:58:50;102606.13;;;-2.37;95.56
58843;BME280;44614;54.356;10.100;2024-01-07T10:01:18;102572.59;;;-2.46;97.40
58843;BME280;44614;54.356;10.100;2024-01-07T10:03:44;102612.38;;;-2.22;96.94
58843;BME280;44614;54.356;10.100;2024-01-07T10:06:11;102572.03;;;-2.51;96.50
58843;BME280;44614;54.356;10.100;2024-01-07T10:08:37;102611.50;;;-2.23;97.94
58843;BME280;44614;54.356;10.100;2024-01-07T10:11:03;102584.81;;;-2.40;96.52
58843;BME280;44614;54.356;10.100;2024-01-07T10:13:30;102613.63;;;-2.28;97.06
58843;BME280;44614;54.356;10.100;2024-01-07T10:15:56;102612.94;;;-2.31;98.02
58843;BME280;44614;54.356;10.100;2024-01-07T10:18:22;102614.13;;;-2.35;97.84
58843;BME280;44614;54.356;10.100;2024-01-07T10:20:48;102615.94;;;-2.36;98.87
58843;BME280;44614;54.356;10.100;2024-01-07T10:23:19;102600.53;;;-2.48;97.67
58843;BME280;44614;54.356;10.100;2024-01-07T10:25:44;102619.19;;;-2.45;97.45
58843;BME280;44614;54.356;10.100;2024-01-07T10:28:09;102614.66;;;-2.45;98.48
58843;BME280;44614;54.356;10.100;2024-01-07T10:30:38;102621.00;;;-2.46;98.74
58843;BME280;44614;54.356;10.100;2024-01-07T10:33:04;102615.81;;;-2.49;98.70
58843;BME280;44614;54.356;10.100;2024-01-07T10:35:35;102621.19;;;-2.49;98.88
58843;BME280;44614;54.356;10.100;2024-01-07T10:38:02;102589.75;;;-2.77;93.62
58843;BME280;44614;54.356;10.100;2024-01-07T10:40:28;102622.81;;;-2.60;94.90
58843;BME280;44614;54.356;10.100;2024-01-07T10:42:55;102623.09;;;-2.65;94.01
58843;BME280;44614;54.356;10.100;2024-01-07T10:45:21;102614.69;;;-2.59;96.78
58843;BME280;44614;54.356;10.100;2024-01-07T10:47:54;102619.94;;;-2.57;97.02
58843;BME280;44614;54.356;10.100;2024-01-07T10:50:21;102621.28;;;-2.64;93.40
58843;BME280;44614;54.356;10.100;2024-01-07T10:52:50;102594.66;;;-2.83;96.15
58843;BME280;44614;54.356;10.100;2024-01-07T10:55:18;102605.78;;;-2.75;93.70
58843;BME280;44614;54.356;10.100;2024-01-07T10:57:44;102626.84;;;-2.67;92.56
58843;BME280;44614;54.356;10.100;2024-01-07T11:00:13;102629.47;;;-2.66;92.98
58843;BME280;44614;54.356;10.100;2024-01-07T11:02:53;102630.13;;;-2.62;94.53
58843;BME280;44614;54.356;10.100;2024-01-07T11:05:27;102632.03;;;-2.64;93.96
58843;BME280;44614;54.356;10.100;2024-01-07T11:10:49;102627.91;;;-2.70;91.70
58843;BME280;44614;54.356;10.100;2024-01-07T11:13:34;102639.03;;;-2.76;88.83
58843;BME280;44614;54.356;10.100;2024-01-07T11:16:03;102625.09;;;-2.83;88.39
58843;BME280;44614;54.356;10.100;2024-01-07T11:18:30;102634.03;;;-2.82;88.98
58843;BME280;44614;54.356;10.100;2024-01-07T11:21:02;102628.38;;;-2.78;92.41
58843;BME280;44614;54.356;10.100;2024-01-07T11:23:32;102631.66;;;-2.73;93.60
58843;BME280;44614;54.356;10.100;2024-01-07T11:26:05;102613.84;;;-2.75;92.92
58843;BME280;44614;54.356;10.100;2024-01-07T11:31:16;102622.81;;;-2.75;92.44
58843;BME280;44614;54.356;10.100;2024-01-07T11:33:47;102630.22;;;-2.78;92.24
58843;BME280;44614;54.356;10.100;2024-01-07T11:36:14;102631.75;;;-2.74;93.57
58843;BME280;44614;54.356;10.100;2024-01-07T11:38:49;102638.53;;;-2.83;89.12
58843;BME280;44614;54.356;10.100;2024-01-07T11:41:15;102617.47;;;-2.90;88.87
58843;BME280;44614;54.356;10.100;2024-01-07T11:43:52;102632.00;;;-2.93;89.45
58843;BME280;44614;54.356;10.100;2024-01-07T11:46:17;102627.47;;;-2.92;91.05
58843;BME280;44614;54.356;10.100;2024-01-07T11:48:45;102638.13;;;-2.91;91.03
58843;BME280;44614;54.356;10.100;2024-01-07T11:51:11;102625.28;;;-2.86;92.29
58843;BME280;44614;54.356;10.100;2024-01-07T11:53:37;102625.28;;;-2.86;92.16
58843;BME280;44614;54.356;10.100;2024-01-07T11:56:03;102627.00;;;-2.85;92.08
58843;BME280;44614;54.356;10.100;2024-01-07T11:58:28;102637.19;;;-2.90;89.97
58843;BME280;44614;54.356;10.100;2024-01-07T12:00:54;102644.28;;;-2.89;91.02
58843;BME280;44614;54.356;10.100;2024-01-07T12:03:19;102630.06;;;-2.91;91.10
58843;BME280;44614;54.356;10.100;2024-01-07T12:05:45;102638.97;;;-2.90;92.20
58843;BME280;44614;54.356;10.100;2024-01-07T12:08:11;102641.50;;;-2.87;93.46
58843;BME280;44614;54.356;10.100;2024-01-07T12:10:37;102648.34;;;-2.82;95.55
58843;BME280;44614;54.356;10.100;2024-01-07T12:13:03;102643.16;;;-2.85;93.19
58843;BME280;44614;54.356;10.100;2024-01-07T12:15:29;102644.88;;;-2.84;93.30
58843;BME280;44614;54.356;10.100;2024-01-07T12:17:56;102647.72;;;-2.87;90.91
58843;BME280;44614;54.356;10.100;2024-01-07T12:20:22;102640.47;;;-2.85;93.45
58843;BME280;44614;54.356;10.100;2024-01-07T12:22:48;102634.69;;;-2.79;93.97
58843;BME280;44614;54.356;10.100;2024-01-07T12:25:13;102637.13;;;-2.74;94.77
58843;BME280;44614;54.356;10.100;2024-01-07T12:27:45;102637.59;;;-2.67;95.04
58843;BME280;44614;54.356;10.100;2024-01-07T12:30:11;102645.78;;;-2.69;93.32
58843;BME280;44614;54.356;10.100;2024-01-07T12:32:37;102643.25;;;-2.72;93.48